Dunkirk, United Kingdom
Current Conditions -  °F | °C
As of 6:50 AM on Friday 28 Nov 2014 (Local Time) from EGMC Reporting Station
Broken Clouds Broken Clouds  
Wind Chill: 11°   Ceiling: 1600
Heat Index: 11°   Visibility: 4mi
Dew Point:   Wind: 9mph
Humidity: 88%   Direction: 100°E
Pressure: 29.59"   Gusts: NA
Location:  51.29°N, 0.98°E
Report Text: EGMC 280650Z 10008KT 7000 SCT010 BKN016 11/09 Q1002
Loading
Personal Weather Stations






























Interactive Weather Map New forecast layout! Learn more

10-Day Weather Forecast

Advertisements
Track Severe Weather on mobile